sensor_id;sensor_type;location;lat;lon;timestamp;P1;durP1;ratioP1;P2;durP2;ratioP2
72864;SDS011;61000;48.120;11.548;2023-12-28T00:00:57;2.67;;;2.45;;
72864;SDS011;61000;48.120;11.548;2023-12-28T00:03:25;4.07;;;3.03;;
72864;SDS011;61000;48.120;11.548;2023-12-28T00:05:55;3.78;;;2.63;;
72864;SDS011;61000;48.120;11.548;2023-12-28T00:08:22;3.00;;;2.58;;
72864;SDS011;61000;48.120;11.548;2023-12-28T00:10:49;2.88;;;2.60;;
72864;SDS011;61000;48.120;11.548;2023-12-28T00:13:16;3.28;;;2.97;;
72864;SDS011;61000;48.120;11.548;2023-12-28T00:15:43;4.15;;;2.90;;
72864;SDS011;61000;48.120;11.548;2023-12-28T00:18:11;5.60;;;3.35;;
72864;SDS011;61000;48.120;11.548;2023-12-28T00:20:39;3.70;;;3.10;;
72864;SDS011;61000;48.120;11.548;2023-12-28T00:23:06;3.88;;;3.05;;
72864;SDS011;61000;48.120;11.548;2023-12-28T00:25:33;3.65;;;2.63;;
72864;SDS011;61000;48.120;11.548;2023-12-28T00:28:00;2.97;;;2.30;;
72864;SDS011;61000;48.120;11.548;2023-12-28T00:30:27;4.30;;;2.83;;
72864;SDS011;61000;48.120;11.548;2023-12-28T00:32:54;5.55;;;3.08;;
72864;SDS011;61000;48.120;11.548;2023-12-28T00:35:20;4.72;;;2.67;;
72864;SDS011;61000;48.120;11.548;2023-12-28T00:37:49;3.45;;;2.67;;
72864;SDS011;61000;48.120;11.548;2023-12-28T00:40:16;3.05;;;2.75;;
72864;SDS011;61000;48.120;11.548;2023-12-28T00:42:43;5.90;;;3.35;;
72864;SDS011;61000;48.120;11.548;2023-12-28T00:45:10;3.80;;;2.90;;
72864;SDS011;61000;48.120;11.548;2023-12-28T00:47:37;3.22;;;2.72;;
72864;SDS011;61000;48.120;11.548;2023-12-28T00:50:04;2.97;;;2.67;;
72864;SDS011;61000;48.120;11.548;2023-12-28T00:52:31;2.78;;;2.55;;
72864;SDS011;61000;48.120;11.548;2023-12-28T00:54:59;3.08;;;2.60;;
72864;SDS011;61000;48.120;11.548;2023-12-28T00:57:26;3.00;;;2.70;;
72864;SDS011;61000;48.120;11.548;2023-12-28T00:59:53;5.65;;;2.75;;
72864;SDS011;61000;48.120;11.548;2023-12-28T01:02:20;3.40;;;2.60;;
72864;SDS011;61000;48.120;11.548;2023-12-28T01:04:47;4.10;;;3.10;;
72864;SDS011;61000;48.120;11.548;2023-12-28T01:07:14;3.58;;;3.05;;
72864;SDS011;61000;48.120;11.548;2023-12-28T01:09:41;5.55;;;2.97;;
72864;SDS011;61000;48.120;11.548;2023-12-28T01:12:09;3.47;;;2.85;;
72864;SDS011;61000;48.120;11.548;2023-12-28T01:14:36;4.30;;;3.10;;
72864;SDS011;61000;48.120;11.548;2023-12-28T01:17:03;4.90;;;3.38;;
72864;SDS011;61000;48.120;11.548;2023-12-28T01:19:30;3.97;;;2.90;;
72864;SDS011;61000;48.120;11.548;2023-12-28T01:21:57;4.05;;;2.78;;
72864;SDS011;61000;48.120;11.548;2023-12-28T01:24:24;4.35;;;3.03;;
72864;SDS011;61000;48.120;11.548;2023-12-28T01:26:51;3.42;;;2.80;;
72864;SDS011;61000;48.120;11.548;2023-12-28T01:29:20;2.92;;;2.72;;
72864;SDS011;61000;48.120;11.548;2023-12-28T01:31:47;3.42;;;2.60;;
72864;SDS011;61000;48.120;11.548;2023-12-28T01:34:14;3.25;;;2.95;;
72864;SDS011;61000;48.120;11.548;2023-12-28T01:36:41;3.35;;;2.97;;
72864;SDS011;61000;48.120;11.548;2023-12-28T01:39:09;3.03;;;2.40;;
72864;SDS011;61000;48.120;11.548;2023-12-28T01:41:37;4.63;;;2.72;;
72864;SDS011;61000;48.120;11.548;2023-12-28T01:44:04;3.60;;;2.92;;
72864;SDS011;61000;48.120;11.548;2023-12-28T01:46:32;3.95;;;2.78;;
72864;SDS011;61000;48.120;11.548;2023-12-28T01:49:00;3.33;;;2.50;;
72864;SDS011;61000;48.120;11.548;2023-12-28T01:51:28;2.63;;;2.42;;
72864;SDS011;61000;48.120;11.548;2023-12-28T01:53:55;3.05;;;2.75;;
72864;SDS011;61000;48.120;11.548;2023-12-28T01:56:23;3.38;;;3.08;;
72864;SDS011;61000;48.120;11.548;2023-12-28T01:58:50;3.47;;;2.88;;
72864;SDS011;61000;48.120;11.548;2023-12-28T02:01:18;3.78;;;3.10;;
72864;SDS011;61000;48.120;11.548;2023-12-28T02:03:47;3.72;;;3.15;;
72864;SDS011;61000;48.120;11.548;2023-12-28T02:06:15;4.63;;;3.00;;
72864;SDS011;61000;48.120;11.548;2023-12-28T02:08:42;5.32;;;2.90;;
72864;SDS011;61000;48.120;11.548;2023-12-28T02:11:09;3.92;;;2.90;;
72864;SDS011;61000;48.120;11.548;2023-12-28T02:13:36;2.83;;;2.58;;
72864;SDS011;61000;48.120;11.548;2023-12-28T02:16:06;3.05;;;2.45;;
72864;SDS011;61000;48.120;11.548;2023-12-28T02:18:39;3.70;;;2.50;;
72864;SDS011;61000;48.120;11.548;2023-12-28T02:21:11;3.03;;;2.63;;
72864;SDS011;61000;48.120;11.548;2023-12-28T02:23:39;2.65;;;2.45;;
72864;SDS011;61000;48.120;11.548;2023-12-28T02:26:13;3.92;;;2.78;;
72864;SDS011;61000;48.120;11.548;2023-12-28T02:28:40;3.08;;;2.70;;
72864;SDS011;61000;48.120;11.548;2023-12-28T02:31:07;3.63;;;2.25;;
72864;SDS011;61000;48.120;11.548;2023-12-28T02:33:38;2.60;;;2.40;;
72864;SDS011;61000;48.120;11.548;2023-12-28T02:36:12;2.22;;;2.03;;
72864;SDS011;61000;48.120;11.548;2023-12-28T02:38:42;3.22;;;2.30;;
72864;SDS011;61000;48.120;11.548;2023-12-28T02:41:10;2.63;;;2.20;;
72864;SDS011;61000;48.120;11.548;2023-12-28T02:43:39;3.10;;;2.47;;
72864;SDS011;61000;48.120;11.548;2023-12-28T02:46:06;3.13;;;2.75;;
72864;SDS011;61000;48.120;11.548;2023-12-28T02:48:33;4.90;;;2.58;;
72864;SDS011;61000;48.120;11.548;2023-12-28T02:51:01;2.53;;;2.33;;
72864;SDS011;61000;48.120;11.548;2023-12-28T02:53:28;2.95;;;2.60;;
72864;SDS011;61000;48.120;11.548;2023-12-28T02:55:55;3.00;;;2.70;;
72864;SDS011;61000;48.120;11.548;2023-12-28T02:58:23;3.38;;;2.50;;
72864;SDS011;61000;48.120;11.548;2023-12-28T03:00:50;2.83;;;2.50;;
72864;SDS011;61000;48.120;11.548;2023-12-28T03:03:17;4.07;;;2.85;;
72864;SDS011;61000;48.120;11.548;2023-12-28T03:05:44;3.38;;;2.70;;
72864;SDS011;61000;48.120;11.548;2023-12-28T03:08:11;2.97;;;2.70;;
72864;SDS011;61000;48.120;11.548;2023-12-28T03:10:38;3.30;;;2.75;;
72864;SDS011;61000;48.120;11.548;2023-12-28T03:13:05;4.22;;;2.45;;
72864;SDS011;61000;48.120;11.548;2023-12-28T03:15:33;5.13;;;2.50;;
72864;SDS011;61000;48.120;11.548;2023-12-28T03:18:00;4.60;;;2.70;;
72864;SDS011;61000;48.120;11.548;2023-12-28T03:20:27;3.60;;;2.47;;
72864;SDS011;61000;48.120;11.548;2023-12-28T03:22:54;3.38;;;2.38;;
72864;SDS011;61000;48.120;11.548;2023-12-28T03:25:21;3.67;;;2.67;;
72864;SDS011;61000;48.120;11.548;2023-12-28T03:27:48;2.67;;;2.47;;
72864;SDS011;61000;48.120;11.548;2023-12-28T03:30:15;3.78;;;2.17;;
72864;SDS011;61000;48.120;11.548;2023-12-28T03:32:43;2.35;;;2.15;;
72864;SDS011;61000;48.120;11.548;2023-12-28T03:35:10;2.40;;;2.20;;
72864;SDS011;61000;48.120;11.548;2023-12-28T03:37:37;2.20;;;2.00;;
72864;SDS011;61000;48.120;11.548;2023-12-28T03:40:04;3.05;;;2.22;;
72864;SDS011;61000;48.120;11.548;2023-12-28T03:42:32;4.63;;;2.55;;
72864;SDS011;61000;48.120;11.548;2023-12-28T03:44:58;2.65;;;2.28;;
72864;SDS011;61000;48.120;11.548;2023-12-28T03:47:25;2.30;;;2.05;;
72864;SDS011;61000;48.120;11.548;2023-12-28T03:49:54;2.58;;;2.38;;
72864;SDS011;61000;48.120;11.548;2023-12-28T03:52:22;4.03;;;2.08;;
72864;SDS011;61000;48.120;11.548;2023-12-28T03:54:49;2.67;;;2.22;;
72864;SDS011;61000;48.120;11.548;2023-12-28T03:57:16;2.63;;;2.42;;
72864;SDS011;61000;48.120;11.548;2023-12-28T03:59:43;3.45;;;2.70;;
72864;SDS011;61000;48.120;11.548;2023-12-28T04:02:10;2.53;;;2.30;;
72864;SDS011;61000;48.120;11.548;2023-12-28T04:04:38;2.65;;;2.05;;
72864;SDS011;61000;48.120;11.548;2023-12-28T04:07:06;2.30;;;2.10;;
72864;SDS011;61000;48.120;11.548;2023-12-28T04:09:33;2.47;;;1.98;;
72864;SDS011;61000;48.120;11.548;2023-12-28T04:12:00;2.58;;;2.10;;
72864;SDS011;61000;48.120;11.548;2023-12-28T04:14:27;3.83;;;2.40;;
72864;SDS011;61000;48.120;11.548;2023-12-28T04:16:54;1.80;;;1.70;;
72864;SDS011;61000;48.120;11.548;2023-12-28T04:19:21;1.70;;;1.60;;
72864;SDS011;61000;48.120;11.548;2023-12-28T04:21:47;1.80;;;1.70;;
72864;SDS011;61000;48.120;11.548;2023-12-28T04:24:16;2.75;;;2.00;;
72864;SDS011;61000;48.120;11.548;2023-12-28T04:26:43;3.53;;;1.98;;
72864;SDS011;61000;48.120;11.548;2023-12-28T04:29:10;4.75;;;2.30;;
72864;SDS011;61000;48.120;11.548;2023-12-28T04:31:39;3.50;;;2.42;;
72864;SDS011;61000;48.120;11.548;2023-12-28T04:34:06;2.15;;;1.95;;
72864;SDS011;61000;48.120;11.548;2023-12-28T04:36:39;3.97;;;2.00;;
72864;SDS011;61000;48.120;11.548;2023-12-28T04:39:06;3.35;;;2.17;;
72864;SDS011;61000;48.120;11.548;2023-12-28T04:41:35;6.10;;;2.35;;
72864;SDS011;61000;48.120;11.548;2023-12-28T04:44:02;3.17;;;2.20;;
72864;SDS011;61000;48.120;11.548;2023-12-28T04:46:29;2.13;;;1.80;;
72864;SDS011;61000;48.120;11.548;2023-12-28T04:48:56;1.90;;;1.73;;
72864;SDS011;61000;48.120;11.548;2023-12-28T04:51:23;2.35;;;1.75;;
72864;SDS011;61000;48.120;11.548;2023-12-28T04:53:50;4.55;;;2.13;;
72864;SDS011;61000;48.120;11.548;2023-12-28T04:56:18;2.85;;;2.00;;
72864;SDS011;61000;48.120;11.548;2023-12-28T04:58:46;3.67;;;2.20;;
72864;SDS011;61000;48.120;11.548;2023-12-28T05:01:13;4.45;;;2.05;;
72864;SDS011;61000;48.120;11.548;2023-12-28T05:03:40;4.43;;;3.15;;
72864;SDS011;61000;48.120;11.548;2023-12-28T05:06:07;4.78;;;2.30;;
72864;SDS011;61000;48.120;11.548;2023-12-28T05:08:34;2.08;;;1.83;;
72864;SDS011;61000;48.120;11.548;2023-12-28T05:11:01;3.08;;;1.58;;
72864;SDS011;61000;48.120;11.548;2023-12-28T05:13:28;2.55;;;1.67;;
72864;SDS011;61000;48.120;11.548;2023-12-28T05:15:56;2.55;;;2.25;;
72864;SDS011;61000;48.120;11.548;2023-12-28T05:18:23;2.20;;;1.77;;
72864;SDS011;61000;48.120;11.548;2023-12-28T05:20:50;4.00;;;2.20;;
72864;SDS011;61000;48.120;11.548;2023-12-28T05:23:16;3.15;;;1.92;;
72864;SDS011;61000;48.120;11.548;2023-12-28T05:25:43;1.63;;;1.52;;
72864;SDS011;61000;48.120;11.548;2023-12-28T05:28:11;1.63;;;1.52;;
72864;SDS011;61000;48.120;11.548;2023-12-28T05:30:38;3.08;;;1.80;;
72864;SDS011;61000;48.120;11.548;2023-12-28T05:33:06;2.20;;;2.00;;
72864;SDS011;61000;48.120;11.548;2023-12-28T05:35:33;2.75;;;2.00;;
72864;SDS011;61000;48.120;11.548;2023-12-28T05:38:00;2.38;;;1.65;;
72864;SDS011;61000;48.120;11.548;2023-12-28T05:40:27;1.95;;;1.75;;
72864;SDS011;61000;48.120;11.548;2023-12-28T05:42:54;2.38;;;1.60;;
72864;SDS011;61000;48.120;11.548;2023-12-28T05:45:20;2.70;;;2.03;;
72864;SDS011;61000;48.120;11.548;2023-12-28T05:47:47;2.65;;;1.80;;
72864;SDS011;61000;48.120;11.548;2023-12-28T05:50:16;1.75;;;1.60;;
72864;SDS011;61000;48.120;11.548;2023-12-28T05:52:43;4.78;;;1.45;;
72864;SDS011;61000;48.120;11.548;2023-12-28T05:55:10;1.67;;;1.50;;
72864;SDS011;61000;48.120;11.548;2023-12-28T05:57:37;3.17;;;1.80;;
72864;SDS011;61000;48.120;11.548;2023-12-28T06:00:04;2.35;;;1.77;;
72864;SDS011;61000;48.120;11.548;2023-12-28T06:02:37;2.20;;;2.00;;
72864;SDS011;61000;48.120;11.548;2023-12-28T06:05:06;3.47;;;1.90;;
72864;SDS011;61000;48.120;11.548;2023-12-28T06:07:34;3.13;;;2.83;;
72864;SDS011;61000;48.120;11.548;2023-12-28T06:10:01;7.53;;;3.00;;
72864;SDS011;61000;48.120;11.548;2023-12-28T06:12:28;4.90;;;2.40;;
72864;SDS011;61000;48.120;11.548;2023-12-28T06:14:54;3.92;;;2.38;;
72864;SDS011;61000;48.120;11.548;2023-12-28T06:17:21;4.55;;;2.60;;
72864;SDS011;61000;48.120;11.548;2023-12-28T06:19:48;4.03;;;2.17;;
72864;SDS011;61000;48.120;11.548;2023-12-28T06:22:16;2.95;;;1.98;;
72864;SDS011;61000;48.120;11.548;2023-12-28T06:24:44;2.60;;;2.40;;
72864;SDS011;61000;48.120;11.548;2023-12-28T06:27:11;4.43;;;2.50;;
72864;SDS011;61000;48.120;11.548;2023-12-28T06:29:38;4.60;;;2.65;;
72864;SDS011;61000;48.120;11.548;2023-12-28T06:32:05;4.78;;;2.15;;
72864;SDS011;61000;48.120;11.548;2023-12-28T06:34:32;1.95;;;1.80;;
72864;SDS011;61000;48.120;11.548;2023-12-28T06:36:59;2.17;;;1.98;;
72864;SDS011;61000;48.120;11.548;2023-12-28T06:39:26;3.08;;;2.33;;
72864;SDS011;61000;48.120;11.548;2023-12-28T06:41:54;2.10;;;1.90;;
72864;SDS011;61000;48.120;11.548;2023-12-28T06:44:21;3.08;;;2.08;;
72864;SDS011;61000;48.120;11.548;2023-12-28T06:46:48;5.32;;;2.65;;
72864;SDS011;61000;48.120;11.548;2023-12-28T06:49:15;2.28;;;2.08;;
72864;SDS011;61000;48.120;11.548;2023-12-28T06:51:42;3.08;;;2.20;;
72864;SDS011;61000;48.120;11.548;2023-12-28T06:54:11;2.70;;;2.13;;
72864;SDS011;61000;48.120;11.548;2023-12-28T06:56:38;2.10;;;2.00;;
72864;SDS011;61000;48.120;11.548;2023-12-28T06:59:06;2.67;;;2.17;;
72864;SDS011;61000;48.120;11.548;2023-12-28T07:01:37;3.22;;;2.35;;
72864;SDS011;61000;48.120;11.548;2023-12-28T07:04:04;3.95;;;2.20;;
72864;SDS011;61000;48.120;11.548;2023-12-28T07:06:31;2.33;;;2.13;;
72864;SDS011;61000;48.120;11.548;2023-12-28T07:08:58;3.42;;;2.38;;
72864;SDS011;61000;48.120;11.548;2023-12-28T07:11:25;7.85;;;2.88;;
72864;SDS011;61000;48.120;11.548;2023-12-28T07:13:52;2.83;;;1.83;;
72864;SDS011;61000;48.120;11.548;2023-12-28T07:16:20;2.33;;;2.15;;
72864;SDS011;61000;48.120;11.548;2023-12-28T07:18:47;4.18;;;2.90;;
72864;SDS011;61000;48.120;11.548;2023-12-28T07:21:14;2.75;;;2.33;;
72864;SDS011;61000;48.120;11.548;2023-12-28T07:23:41;6.50;;;2.80;;
72864;SDS011;61000;48.120;11.548;2023-12-28T07:26:14;3.17;;;2.60;;
72864;SDS011;61000;48.120;11.548;2023-12-28T07:28:41;9.35;;;2.20;;
72864;SDS011;61000;48.120;11.548;2023-12-28T07:31:10;2.40;;;2.20;;
72864;SDS011;61000;48.120;11.548;2023-12-28T07:33:38;2.70;;;2.50;;
72864;SDS011;61000;48.120;11.548;2023-12-28T07:36:05;3.92;;;2.58;;
72864;SDS011;61000;48.120;11.548;2023-12-28T07:38:32;2.63;;;2.42;;
72864;SDS011;61000;48.120;11.548;2023-12-28T07:40:59;5.63;;;2.53;;
72864;SDS011;61000;48.120;11.548;2023-12-28T07:43:26;4.97;;;2.70;;
72864;SDS011;61000;48.120;11.548;2023-12-28T07:45:53;3.28;;;2.60;;
72864;SDS011;61000;48.120;11.548;2023-12-28T07:48:20;3.08;;;2.28;;
72864;SDS011;61000;48.120;11.548;2023-12-28T07:50:48;5.05;;;2.30;;
72864;SDS011;61000;48.120;11.548;2023-12-28T07:53:17;3.17;;;2.38;;
72864;SDS011;61000;48.120;11.548;2023-12-28T07:55:44;2.10;;;2.00;;
72864;SDS011;61000;48.120;11.548;2023-12-28T07:58:10;2.80;;;2.33;;
72864;SDS011;61000;48.120;11.548;2023-12-28T08:00:37;2.20;;;2.00;;
72864;SDS011;61000;48.120;11.548;2023-12-28T08:03:04;5.75;;;2.25;;
72864;SDS011;61000;48.120;11.548;2023-12-28T08:05:31;5.45;;;2.35;;
72864;SDS011;61000;48.120;11.548;2023-12-28T08:07:59;3.60;;;2.45;;
72864;SDS011;61000;48.120;11.548;2023-12-28T08:10:26;3.83;;;2.72;;
72864;SDS011;61000;48.120;11.548;2023-12-28T08:12:53;3.00;;;2.50;;
72864;SDS011;61000;48.120;11.548;2023-12-28T08:15:20;5.22;;;2.75;;
72864;SDS011;61000;48.120;11.548;2023-12-28T08:17:47;3.05;;;2.50;;
72864;SDS011;61000;48.120;11.548;2023-12-28T08:20:14;3.30;;;2.40;;
72864;SDS011;61000;48.120;11.548;2023-12-28T08:22:41;3.80;;;2.22;;
72864;SDS011;61000;48.120;11.548;2023-12-28T08:25:10;3.25;;;2.63;;
72864;SDS011;61000;48.120;11.548;2023-12-28T08:27:36;3.47;;;2.38;;
72864;SDS011;61000;48.120;11.548;2023-12-28T08:30:04;3.45;;;2.35;;
72864;SDS011;61000;48.120;11.548;2023-12-28T08:32:31;4.25;;;2.75;;
72864;SDS011;61000;48.120;11.548;2023-12-28T08:34:58;3.40;;;2.40;;
72864;SDS011;61000;48.120;11.548;2023-12-28T08:37:25;3.55;;;2.50;;
72864;SDS011;61000;48.120;11.548;2023-12-28T08:39:52;4.97;;;2.80;;
72864;SDS011;61000;48.120;11.548;2023-12-28T08:42:21;3.50;;;2.72;;
72864;SDS011;61000;48.120;11.548;2023-12-28T08:44:50;3.45;;;2.20;;
72864;SDS011;61000;48.120;11.548;2023-12-28T08:47:17;5.88;;;2.17;;
72864;SDS011;61000;48.120;11.548;2023-12-28T08:49:44;3.83;;;2.45;;
72864;SDS011;61000;48.120;11.548;2023-12-28T08:52:11;2.30;;;2.10;;
72864;SDS011;61000;48.120;11.548;2023-12-28T08:54:38;2.45;;;2.25;;
72864;SDS011;61000;48.120;11.548;2023-12-28T08:57:06;2.15;;;1.95;;
72864;SDS011;61000;48.120;11.548;2023-12-28T08:59:36;2.30;;;2.10;;
72864;SDS011;61000;48.120;11.548;2023-12-28T09:02:03;2.67;;;1.83;;
72864;SDS011;61000;48.120;11.548;2023-12-28T09:04:30;2.15;;;1.95;;
72864;SDS011;61000;48.120;11.548;2023-12-28T09:06:57;2.40;;;2.05;;
72864;SDS011;61000;48.120;11.548;2023-12-28T09:09:24;1.83;;;1.67;;
72864;SDS011;61000;48.120;11.548;2023-12-28T09:11:51;2.15;;;1.95;;
72864;SDS011;61000;48.120;11.548;2023-12-28T09:14:18;3.58;;;2.80;;
72864;SDS011;61000;48.120;11.548;2023-12-28T09:16:47;4.93;;;2.45;;
72864;SDS011;61000;48.120;11.548;2023-12-28T09:19:14;3.30;;;2.05;;
72864;SDS011;61000;48.120;11.548;2023-12-28T09:21:40;4.32;;;2.88;;
72864;SDS011;61000;48.120;11.548;2023-12-28T09:24:07;4.47;;;2.85;;
72864;SDS011;61000;48.120;11.548;2023-12-28T09:26:34;6.00;;;2.10;;
72864;SDS011;61000;48.120;11.548;2023-12-28T09:29:01;5.07;;;2.65;;
72864;SDS011;61000;48.120;11.548;2023-12-28T09:31:28;3.60;;;2.03;;
72864;SDS011;61000;48.120;11.548;2023-12-28T09:33:57;6.30;;;2.75;;
72864;SDS011;61000;48.120;11.548;2023-12-28T09:36:24;5.35;;;2.05;;
72864;SDS011;61000;48.120;11.548;2023-12-28T09:38:51;5.80;;;2.00;;
72864;SDS011;61000;48.120;11.548;2023-12-28T09:41:18;4.60;;;2.33;;
72864;SDS011;61000;48.120;11.548;2023-12-28T09:43:53;6.95;;;2.03;;
72864;SDS011;61000;48.120;11.548;2023-12-28T09:46:20;7.45;;;2.03;;
72864;SDS011;61000;48.120;11.548;2023-12-28T09:48:47;8.25;;;2.70;;
72864;SDS011;61000;48.120;11.548;2023-12-28T09:51:16;12.77;;;2.22;;
72864;SDS011;61000;48.120;11.548;2023-12-28T09:53:43;3.60;;;1.70;;
72864;SDS011;61000;48.120;11.548;2023-12-28T09:56:11;9.18;;;1.67;;
72864;SDS011;61000;48.120;11.548;2023-12-28T09:58:39;4.97;;;1.65;;
72864;SDS011;61000;48.120;11.548;2023-12-28T10:01:06;12.27;;;2.38;;
72864;SDS011;61000;48.120;11.548;2023-12-28T10:03:35;5.82;;;1.95;;
72864;SDS011;61000;48.120;11.548;2023-12-28T10:06:02;3.38;;;2.15;;
72864;SDS011;61000;48.120;11.548;2023-12-28T10:08:31;1.77;;;1.65;;
72864;SDS011;61000;48.120;11.548;2023-12-28T10:10:58;2.47;;;1.55;;
72864;SDS011;61000;48.120;11.548;2023-12-28T10:13:26;2.00;;;1.50;;
72864;SDS011;61000;48.120;11.548;2023-12-28T10:15:56;4.10;;;1.83;;
72864;SDS011;61000;48.120;11.548;2023-12-28T10:18:23;2.88;;;1.60;;
72864;SDS011;61000;48.120;11.548;2023-12-28T10:20:50;6.05;;;2.03;;
72864;SDS011;61000;48.120;11.548;2023-12-28T10:23:17;2.38;;;1.50;;
72864;SDS011;61000;48.120;11.548;2023-12-28T10:25:46;2.53;;;1.70;;
72864;SDS011;61000;48.120;11.548;2023-12-28T10:28:15;2.22;;;1.45;;
72864;SDS011;61000;48.120;11.548;2023-12-28T10:30:44;8.65;;;1.58;;
72864;SDS011;61000;48.120;11.548;2023-12-28T10:33:11;3.97;;;1.55;;
72864;SDS011;61000;48.120;11.548;2023-12-28T10:35:39;3.78;;;2.08;;
72864;SDS011;61000;48.120;11.548;2023-12-28T10:38:06;4.75;;;1.95;;
72864;SDS011;61000;48.120;11.548;2023-12-28T10:40:36;3.38;;;1.65;;
72864;SDS011;61000;48.120;11.548;2023-12-28T10:43:06;8.98;;;4.40;;
72864;SDS011;61000;48.120;11.548;2023-12-28T10:45:37;6.13;;;2.60;;
72864;SDS011;61000;48.120;11.548;2023-12-28T10:48:06;4.88;;;2.03;;
72864;SDS011;61000;48.120;11.548;2023-12-28T10:50:37;2.22;;;2.00;;
72864;SDS011;61000;48.120;11.548;2023-12-28T10:53:08;3.92;;;2.17;;
72864;SDS011;61000;48.120;11.548;2023-12-28T10:55:48;4.47;;;2.55;;
72864;SDS011;61000;48.120;11.548;2023-12-28T10:58:21;8.50;;;2.30;;
72864;SDS011;61000;48.120;11.548;2023-12-28T11:00:58;3.03;;;1.88;;
72864;SDS011;61000;48.120;11.548;2023-12-28T11:03:30;1.60;;;1.40;;
72864;SDS011;61000;48.120;11.548;2023-12-28T11:06:02;1.83;;;1.60;;
72864;SDS011;61000;48.120;11.548;2023-12-28T11:08:31;2.00;;;1.80;;
72864;SDS011;61000;48.120;11.548;2023-12-28T11:11:00;1.70;;;1.60;;
72864;SDS011;61000;48.120;11.548;2023-12-28T11:13:30;1.83;;;1.65;;
72864;SDS011;61000;48.120;11.548;2023-12-28T11:15:59;1.80;;;1.70;;
72864;SDS011;61000;48.120;11.548;2023-12-28T11:18:28;4.00;;;2.22;;
72864;SDS011;61000;48.120;11.548;2023-12-28T11:20:55;2.47;;;1.70;;
72864;SDS011;61000;48.120;11.548;2023-12-28T11:23:22;5.05;;;1.98;;
72864;SDS011;61000;48.120;11.548;2023-12-28T11:25:50;2.33;;;1.40;;
72864;SDS011;61000;48.120;11.548;2023-12-28T11:28:17;3.15;;;2.10;;
72864;SDS011;61000;48.120;11.548;2023-12-28T11:30:47;3.13;;;1.65;;
72864;SDS011;61000;48.120;11.548;2023-12-28T11:33:14;1.80;;;1.70;;
72864;SDS011;61000;48.120;11.548;2023-12-28T11:35:41;2.70;;;2.00;;
72864;SDS011;61000;48.120;11.548;2023-12-28T11:38:11;5.85;;;1.63;;
72864;SDS011;61000;48.120;11.548;2023-12-28T11:40:41;3.30;;;1.80;;
72864;SDS011;61000;48.120;11.548;2023-12-28T11:43:15;4.03;;;1.83;;
72864;SDS011;61000;48.120;11.548;2023-12-28T11:45:49;1.95;;;1.40;;
72864;SDS011;61000;48.120;11.548;2023-12-28T11:48:23;3.33;;;1.73;;
72864;SDS011;61000;48.120;11.548;2023-12-28T11:50:52;4.00;;;1.50;;
72864;SDS011;61000;48.120;11.548;2023-12-28T11:53:22;1.95;;;1.40;;
72864;SDS011;61000;48.120;11.548;2023-12-28T11:55:49;3.13;;;2.20;;
72864;SDS011;61000;48.120;11.548;2023-12-28T11:58:17;3.67;;;1.58;;
72864;SDS011;61000;48.120;11.548;2023-12-28T12:00:44;3.67;;;1.80;;
72864;SDS011;61000;48.120;11.548;2023-12-28T12:03:13;2.47;;;1.42;;
72864;SDS011;61000;48.120;11.548;2023-12-28T12:05:40;5.45;;;1.80;;
72864;SDS011;61000;48.120;11.548;2023-12-28T12:08:08;3.28;;;2.28;;
72864;SDS011;61000;48.120;11.548;2023-12-28T12:10:39;2.08;;;1.48;;
72864;SDS011;61000;48.120;11.548;2023-12-28T12:13:06;2.63;;;2.22;;
72864;SDS011;61000;48.120;11.548;2023-12-28T12:15:33;4.40;;;1.70;;
72864;SDS011;61000;48.120;11.548;2023-12-28T12:18:00;1.83;;;1.42;;
72864;SDS011;61000;48.120;11.548;2023-12-28T12:20:29;2.92;;;1.60;;
72864;SDS011;61000;48.120;11.548;2023-12-28T12:22:57;1.75;;;1.65;;
72864;SDS011;61000;48.120;11.548;2023-12-28T12:25:25;2.92;;;1.95;;
72864;SDS011;61000;48.120;11.548;2023-12-28T12:27:52;2.30;;;1.73;;
72864;SDS011;61000;48.120;11.548;2023-12-28T12:30:19;3.88;;;1.58;;
72864;SDS011;61000;48.120;11.548;2023-12-28T12:32:47;3.63;;;2.60;;
72864;SDS011;61000;48.120;11.548;2023-12-28T12:35:15;4.00;;;2.78;;
72864;SDS011;61000;48.120;11.548;2023-12-28T12:37:44;4.10;;;2.40;;
72864;SDS011;61000;48.120;11.548;2023-12-28T12:40:12;3.67;;;2.15;;
72864;SDS011;61000;48.120;11.548;2023-12-28T12:42:40;2.97;;;1.90;;
72864;SDS011;61000;48.120;11.548;2023-12-28T12:45:08;4.85;;;2.00;;
72864;SDS011;61000;48.120;11.548;2023-12-28T12:47:35;1.83;;;1.73;;
72864;SDS011;61000;48.120;11.548;2023-12-28T12:50:02;4.93;;;1.92;;
72864;SDS011;61000;48.120;11.548;2023-12-28T12:52:30;3.85;;;1.70;;
72864;SDS011;61000;48.120;11.548;2023-12-28T12:54:58;2.20;;;1.90;;
72864;SDS011;61000;48.120;11.548;2023-12-28T12:57:25;1.80;;;1.70;;
72864;SDS011;61000;48.120;11.548;2023-12-28T12:59:52;2.28;;;1.90;;
72864;SDS011;61000;48.120;11.548;2023-12-28T13:02:21;1.55;;;1.40;;
72864;SDS011;61000;48.120;11.548;2023-12-28T13:04:50;3.33;;;1.67;;
72864;SDS011;61000;48.120;11.548;2023-12-28T13:07:18;3.60;;;1.58;;
72864;SDS011;61000;48.120;11.548;2023-12-28T13:09:45;2.40;;;1.77;;
72864;SDS011;61000;48.120;11.548;2023-12-28T13:12:13;3.83;;;1.90;;
72864;SDS011;61000;48.120;11.548;2023-12-28T13:14:40;1.95;;;1.75;;
72864;SDS011;61000;48.120;11.548;2023-12-28T13:17:09;1.70;;;1.60;;
72864;SDS011;61000;48.120;11.548;2023-12-28T13:19:36;2.20;;;1.63;;
72864;SDS011;61000;48.120;11.548;2023-12-28T13:22:03;2.42;;;1.65;;
72864;SDS011;61000;48.120;11.548;2023-12-28T13:24:31;5.80;;;2.65;;
72864;SDS011;61000;48.120;11.548;2023-12-28T13:26:58;2.30;;;1.80;;
72864;SDS011;61000;48.120;11.548;2023-12-28T13:29:26;1.70;;;1.60;;
72864;SDS011;61000;48.120;11.548;2023-12-28T13:31:55;1.98;;;1.60;;
72864;SDS011;61000;48.120;11.548;2023-12-28T13:34:23;2.38;;;1.73;;
72864;SDS011;61000;48.120;11.548;2023-12-28T13:36:50;2.60;;;1.63;;
72864;SDS011;61000;48.120;11.548;2023-12-28T13:39:18;3.47;;;1.60;;
72864;SDS011;61000;48.120;11.548;2023-12-28T13:41:45;1.30;;;1.20;;
72864;SDS011;61000;48.120;11.548;2023-12-28T13:44:12;3.90;;;2.08;;
72864;SDS011;61000;48.120;11.548;2023-12-28T13:46:40;3.85;;;1.88;;
72864;SDS011;61000;48.120;11.548;2023-12-28T13:49:07;3.13;;;1.60;;
72864;SDS011;61000;48.120;11.548;2023-12-28T13:51:34;2.50;;;1.48;;
72864;SDS011;61000;48.120;11.548;2023-12-28T13:54:01;2.75;;;1.95;;
72864;SDS011;61000;48.120;11.548;2023-12-28T13:56:28;3.58;;;1.92;;
72864;SDS011;61000;48.120;11.548;2023-12-28T13:58:55;2.03;;;1.67;;
72864;SDS011;61000;48.120;11.548;2023-12-28T14:01:22;3.35;;;1.98;;
72864;SDS011;61000;48.120;11.548;2023-12-28T14:03:50;2.90;;;1.90;;
72864;SDS011;61000;48.120;11.548;2023-12-28T14:06:17;3.08;;;1.77;;
72864;SDS011;61000;48.120;11.548;2023-12-28T14:08:45;3.05;;;1.85;;
72864;SDS011;61000;48.120;11.548;2023-12-28T14:11:12;1.80;;;1.70;;
72864;SDS011;61000;48.120;11.548;2023-12-28T14:13:39;2.25;;;1.73;;
72864;SDS011;61000;48.120;11.548;2023-12-28T14:16:06;2.88;;;1.90;;
72864;SDS011;61000;48.120;11.548;2023-12-28T14:18:33;2.38;;;1.83;;
72864;SDS011;61000;48.120;11.548;2023-12-28T14:21:02;2.30;;;2.10;;
72864;SDS011;61000;48.120;11.548;2023-12-28T14:23:29;3.05;;;2.00;;
72864;SDS011;61000;48.120;11.548;2023-12-28T14:25:57;2.53;;;1.80;;
72864;SDS011;61000;48.120;11.548;2023-12-28T14:28:24;5.43;;;1.60;;
72864;SDS011;61000;48.120;11.548;2023-12-28T14:30:54;1.80;;;1.70;;
72864;SDS011;61000;48.120;11.548;2023-12-28T14:33:21;3.08;;;1.90;;
72864;SDS011;61000;48.120;11.548;2023-12-28T14:35:49;2.00;;;1.73;;